createdAt,value
2023-01-29T00:00:10.182Z,1.28
2023-01-29T00:01:11.991Z,1.36
2023-01-29T00:02:13.676Z,1.31
2023-01-29T00:03:16.199Z,1.31
2023-01-29T00:04:18.066Z,1.31
2023-01-29T00:05:28.340Z,1.25
2023-01-29T00:06:30.819Z,1.28
2023-01-29T00:07:32.595Z,1.25
2023-01-29T00:08:35.456Z,1.35
2023-01-29T00:09:37.177Z,1.36
2023-01-29T00:10:38.751Z,1.41
2023-01-29T00:11:40.475Z,1.35
2023-01-29T00:12:42.112Z,1.42
2023-01-29T00:13:44.173Z,1.41
2023-01-29T00:14:45.783Z,1.42
2023-01-29T00:15:55.019Z,1.39
2023-01-29T00:16:56.689Z,1.41
2023-01-29T00:17:58.331Z,1.30
2023-01-29T00:19:01.788Z,1.34
2023-01-29T00:20:03.438Z,1.31
2023-01-29T00:21:11.936Z,1.36
2023-01-29T00:22:13.579Z,1.39
2023-01-29T00:23:15.556Z,1.36
2023-01-29T00:24:17.252Z,1.44
2023-01-29T00:25:18.866Z,1.38
2023-01-29T00:26:21.203Z,1.41
2023-01-29T00:27:22.803Z,1.35
2023-01-29T00:28:24.384Z,1.32
2023-01-29T00:29:26.839Z,1.24
2023-01-29T00:30:28.440Z,1.31
2023-01-29T00:31:30.636Z,1.32
2023-01-29T00:32:32.453Z,1.36
2023-01-29T00:33:34.064Z,1.35
2023-01-29T00:34:36.187Z,1.39
2023-01-29T00:35:39.641Z,1.35
2023-01-29T00:36:41.330Z,1.25
2023-01-29T00:37:42.906Z,1.32
2023-01-29T00:38:44.685Z,1.28
2023-01-29T00:39:48.362Z,1.22
2023-01-29T00:41:08.507Z,1.18
2023-01-29T00:42:28.399Z,1.24
2023-01-29T00:43:48.704Z,1.27
2023-01-29T00:44:59.179Z,1.22
2023-01-29T00:46:00.809Z,1.22
2023-01-29T00:47:02.612Z,1.25
2023-01-29T00:48:04.578Z,1.22
2023-01-29T00:49:06.455Z,1.24
2023-01-29T00:50:11.633Z,1.20
2023-01-29T00:51:13.227Z,1.22
2023-01-29T00:52:26.657Z,1.13
2023-01-29T00:53:28.353Z,1.11
2023-01-29T00:54:31.894Z,1.13
2023-01-29T00:55:34.503Z,1.13
2023-01-29T00:56:36.658Z,1.03
2023-01-29T00:57:38.612Z,1.07
2023-01-29T00:58:40.208Z,1.05
2023-01-29T00:59:41.879Z,1.04
2023-01-29T01:00:43.521Z,1.08
2023-01-29T01:02:03.729Z,1.04
2023-01-29T01:03:08.102Z,0.91
2023-01-29T01:04:10.558Z,0.91
2023-01-29T01:05:18.327Z,0.85
2023-01-29T01:06:20.207Z,0.83
2023-01-29T01:07:21.829Z,0.94
2023-01-29T01:08:42.118Z,1.00
2023-01-29T01:10:01.930Z,1.01
2023-01-29T01:11:05.275Z,0.95
2023-01-29T01:12:06.868Z,0.97
2023-01-29T01:13:08.472Z,0.95
2023-01-29T01:14:10.063Z,0.94
2023-01-29T01:15:11.907Z,0.94
2023-01-29T01:16:14.792Z,0.95
2023-01-29T01:17:16.485Z,0.95
2023-01-29T01:18:20.640Z,0.93
2023-01-29T01:19:22.267Z,0.98
2023-01-29T01:20:24.761Z,0.97
2023-01-29T01:21:26.368Z,1.01
2023-01-29T01:22:28.048Z,1.03
2023-01-29T01:23:29.648Z,1.05
2023-01-29T01:24:31.620Z,1.07
2023-01-29T01:25:33.230Z,1.03
2023-01-29T01:26:35.105Z,0.94
2023-01-29T01:27:41.008Z,0.88
2023-01-29T01:28:42.639Z,0.91
2023-01-29T01:29:44.224Z,0.91
2023-01-29T01:30:45.981Z,1.01
2023-01-29T01:31:47.722Z,1.01
2023-01-29T01:32:49.461Z,1.01
2023-01-29T01:33:51.703Z,1.01
2023-01-29T01:34:53.746Z,1.08
2023-01-29T01:35:55.430Z,1.14
2023-01-29T01:36:57.225Z,1.14
2023-01-29T01:37:58.807Z,1.05
2023-01-29T01:39:00.449Z,0.93
2023-01-29T01:40:03.163Z,0.91
2023-01-29T01:41:04.743Z,0.90
2023-01-29T01:42:11.113Z,0.91
2023-01-29T01:43:12.779Z,0.97
2023-01-29T01:44:50.551Z,0.87
2023-01-29T01:45:52.270Z,0.93
2023-01-29T01:46:53.905Z,0.97
2023-01-29T01:48:25.072Z,0.83
2023-01-29T01:49:26.756Z,0.93
2023-01-29T01:50:40.323Z,0.87
2023-01-29T01:51:49.686Z,0.98
2023-01-29T01:52:53.361Z,0.94
2023-01-29T01:54:02.095Z,0.95
2023-01-29T01:55:03.908Z,0.91
2023-01-29T01:56:09.280Z,0.98
2023-01-29T01:57:16.049Z,1.00
2023-01-29T01:58:26.054Z,0.98
2023-01-29T01:59:27.650Z,0.93
2023-01-29T02:00:29.315Z,0.90
2023-01-29T02:01:30.894Z,0.85
2023-01-29T02:02:50.812Z,0.91
2023-01-29T02:04:32.363Z,0.94
2023-01-29T02:05:53.007Z,0.94
2023-01-29T02:07:13.388Z,0.93
2023-01-29T02:08:33.892Z,0.87
2023-01-29T02:09:39.612Z,0.97
2023-01-29T02:10:46.286Z,1.00
2023-01-29T02:11:47.827Z,0.97
2023-01-29T02:12:49.446Z,0.88
2023-01-29T02:13:53.846Z,0.97
2023-01-29T02:14:55.450Z,0.95
2023-01-29T02:15:57.110Z,0.97
2023-01-29T02:17:01.414Z,0.85
2023-01-29T02:18:03.142Z,0.94
2023-01-29T02:19:06.127Z,0.91
2023-01-29T02:20:29.453Z,0.87
2023-01-29T02:21:42.926Z,0.90
2023-01-29T02:23:05.888Z,0.93
2023-01-29T02:24:10.665Z,0.93
2023-01-29T02:25:26.451Z,0.93
2023-01-29T02:26:52.729Z,0.90
2023-01-29T02:28:07.433Z,0.88
2023-01-29T02:29:22.759Z,0.93
2023-01-29T02:30:36.534Z,0.85
2023-01-29T02:31:45.185Z,0.91
2023-01-29T02:32:58.727Z,0.88
2023-01-29T02:34:30.203Z,0.95
2023-01-29T02:35:38.297Z,0.88
2023-01-29T02:36:48.793Z,1.03
2023-01-29T02:38:27.135Z,1.01
2023-01-29T02:39:37.997Z,1.04
2023-01-29T02:40:54.864Z,1.09
2023-01-29T02:42:12.019Z,0.98
2023-01-29T02:43:19.326Z,1.11
2023-01-29T02:44:24.799Z,1.17
2023-01-29T02:45:53.717Z,1.22
2023-01-29T02:46:58.752Z,1.18
2023-01-29T02:48:01.540Z,1.15
2023-01-29T02:49:15.528Z,1.20
2023-01-29T02:50:22.519Z,1.21
2023-01-29T02:51:34.666Z,1.17
2023-01-29T02:52:59.644Z,1.22
2023-01-29T02:54:33.671Z,1.21
2023-01-29T02:55:38.795Z,1.21
2023-01-29T02:57:02.549Z,1.20
2023-01-29T02:58:33.506Z,1.18
2023-01-29T02:59:38.472Z,1.15
2023-01-29T03:00:42.867Z,1.13
2023-01-29T03:01:58.615Z,1.13
2023-01-29T03:03:17.931Z,1.18
2023-01-29T03:04:26.946Z,1.15
2023-01-29T03:05:34.256Z,1.15
2023-01-29T03:06:38.888Z,1.18
2023-01-29T03:07:44.749Z,1.22
2023-01-29T03:08:50.242Z,1.22
2023-01-29T03:09:51.894Z,1.18
2023-01-29T03:10:57.803Z,1.20
2023-01-29T03:12:19.965Z,1.27
2023-01-29T03:13:47.902Z,1.21
2023-01-29T03:15:08.622Z,1.21
2023-01-29T03:16:19.308Z,1.17
2023-01-29T03:17:22.381Z,1.15
2023-01-29T03:18:27.825Z,1.21
2023-01-29T03:19:36.300Z,1.24
2023-01-29T03:21:26.205Z,1.25
2023-01-29T03:22:27.960Z,1.35
2023-01-29T03:23:50.194Z,1.35
2023-01-29T03:25:15.548Z,1.36
2023-01-29T03:26:35.955Z,1.39
2023-01-29T03:28:04.510Z,1.38
2023-01-29T03:29:24.415Z,1.42
2023-01-29T03:30:44.834Z,1.41
2023-01-29T03:32:08.284Z,1.28
2023-01-29T03:33:10.611Z,1.35
2023-01-29T03:34:24.795Z,1.39
2023-01-29T03:35:36.862Z,1.36
2023-01-29T03:36:45.899Z,1.32
2023-01-29T03:37:48.069Z,1.42
2023-01-29T03:38:49.749Z,1.41
2023-01-29T03:39:51.324Z,1.36
2023-01-29T03:40:54.985Z,1.39
2023-01-29T03:42:01.354Z,1.30
2023-01-29T03:43:08.466Z,1.35
2023-01-29T03:44:12.980Z,1.24
2023-01-29T03:45:32.103Z,1.28
2023-01-29T03:46:52.345Z,1.24
2023-01-29T03:48:35.533Z,1.30
2023-01-29T03:50:18.549Z,1.35
2023-01-29T03:51:40.702Z,1.28
2023-01-29T03:53:06.933Z,1.35
2023-01-29T03:54:26.956Z,1.34
2023-01-29T03:55:43.703Z,1.42
2023-01-29T03:57:07.094Z,1.46
2023-01-29T03:58:17.806Z,1.36
2023-01-29T03:59:33.918Z,1.28
2023-01-29T04:00:40.041Z,1.38
2023-01-29T04:02:03.279Z,1.41
2023-01-29T04:03:19.769Z,1.46
2023-01-29T04:04:29.018Z,1.39
2023-01-29T04:05:38.476Z,1.35
2023-01-29T04:06:40.802Z,1.42
2023-01-29T04:07:42.401Z,1.46
2023-01-29T04:08:52.667Z,1.49
2023-01-29T04:10:00.928Z,1.52
2023-01-29T04:11:06.117Z,1.55
2023-01-29T04:12:09.370Z,1.54
2023-01-29T04:13:11.864Z,1.54
2023-01-29T04:14:13.484Z,1.51
2023-01-29T04:15:15.885Z,1.59
2023-01-29T04:16:20.986Z,1.60
2023-01-29T04:17:25.081Z,1.42
2023-01-29T04:18:27.233Z,1.48
2023-01-29T04:19:28.922Z,1.36
2023-01-29T04:20:30.539Z,1.38
2023-01-29T04:21:32.949Z,1.46
2023-01-29T04:22:36.878Z,1.54
2023-01-29T04:23:38.480Z,1.54
2023-01-29T04:24:40.761Z,1.44
2023-01-29T04:25:45.085Z,1.51
2023-01-29T04:27:07.365Z,1.51
2023-01-29T04:28:22.233Z,1.36
2023-01-29T04:29:30.235Z,1.32
2023-01-29T04:30:49.538Z,1.44
2023-01-29T04:32:03.900Z,1.49
2023-01-29T04:33:16.434Z,1.49
2023-01-29T04:34:36.483Z,1.54
2023-01-29T04:35:40.775Z,1.54
2023-01-29T04:37:38.062Z,1.52
2023-01-29T04:39:22.685Z,1.48
2023-01-29T04:40:37.678Z,1.51
2023-01-29T04:41:39.221Z,1.52
2023-01-29T04:42:50.265Z,1.49
2023-01-29T04:44:18.139Z,1.45
2023-01-29T04:45:50.349Z,1.49
2023-01-29T04:47:00.896Z,1.41
2023-01-29T04:48:11.396Z,1.46
2023-01-29T04:49:23.915Z,1.44
2023-01-29T04:50:47.574Z,1.49
2023-01-29T04:52:01.993Z,1.45
2023-01-29T04:53:18.623Z,1.42
2023-01-29T04:54:49.913Z,1.46
2023-01-29T04:55:56.910Z,1.46
2023-01-29T04:57:16.373Z,1.48
2023-01-29T04:58:25.141Z,1.52
2023-01-29T04:59:33.387Z,1.54
2023-01-29T05:00:40.508Z,1.54
2023-01-29T05:01:42.750Z,1.49
2023-01-29T05:02:44.368Z,1.49
2023-01-29T05:03:48.279Z,1.42
2023-01-29T05:04:50.788Z,1.46
2023-01-29T05:05:52.839Z,1.41
2023-01-29T05:06:54.553Z,1.44
2023-01-29T05:07:56.197Z,1.46
2023-01-29T05:08:57.799Z,1.48
2023-01-29T05:09:59.477Z,1.54
2023-01-29T05:11:01.091Z,1.48
2023-01-29T05:12:02.698Z,1.48
2023-01-29T05:13:05.083Z,1.54
2023-01-29T05:14:07.309Z,1.56
2023-01-29T05:15:11.607Z,1.56
2023-01-29T05:16:25.389Z,1.49
2023-01-29T05:17:27.006Z,1.51
2023-01-29T05:18:29.524Z,1.45
2023-01-29T05:19:31.181Z,1.48
2023-01-29T05:20:33.363Z,1.42
2023-01-29T05:21:35.023Z,1.52
2023-01-29T05:22:37.949Z,1.49
2023-01-29T05:23:39.565Z,1.55
2023-01-29T05:24:41.232Z,1.55
2023-01-29T05:25:42.926Z,1.54
2023-01-29T05:27:03.702Z,1.55
2023-01-29T05:28:11.889Z,1.56
2023-01-29T05:29:13.503Z,1.58
2023-01-29T05:30:15.622Z,1.63
2023-01-29T05:31:17.611Z,1.67
2023-01-29T05:32:19.274Z,1.63
2023-01-29T05:33:30.829Z,1.60
2023-01-29T05:34:32.429Z,1.56
2023-01-29T05:35:34.849Z,1.55
2023-01-29T05:36:36.537Z,1.52
2023-01-29T05:37:38.186Z,1.60
2023-01-29T05:38:39.775Z,1.55
2023-01-29T05:39:41.378Z,1.52
2023-01-29T05:40:43.122Z,1.49
2023-01-29T05:41:44.733Z,1.46
2023-01-29T05:42:46.478Z,1.46
2023-01-29T05:43:48.133Z,1.41
2023-01-29T05:44:49.809Z,1.48
2023-01-29T05:45:55.262Z,1.44
2023-01-29T05:46:56.942Z,1.51
2023-01-29T05:47:59.136Z,1.55
2023-01-29T05:49:00.738Z,1.51
2023-01-29T05:50:02.342Z,1.46
2023-01-29T05:51:04.526Z,1.45
2023-01-29T05:52:06.223Z,1.51
2023-01-29T05:53:09.055Z,1.51
2023-01-29T05:54:12.725Z,1.49
2023-01-29T05:55:14.392Z,1.44
2023-01-29T05:56:16.027Z,1.48
2023-01-29T05:57:17.621Z,1.45
2023-01-29T05:58:19.839Z,1.36
2023-01-29T05:59:21.591Z,1.27
2023-01-29T06:00:23.415Z,1.31
2023-01-29T06:01:25.693Z,1.22
2023-01-29T06:02:30.408Z,1.28
2023-01-29T06:03:32.007Z,1.28
2023-01-29T06:04:33.666Z,1.27
2023-01-29T06:05:39.147Z,1.21
2023-01-29T06:06:41.422Z,1.22
2023-01-29T06:07:45.495Z,1.15
2023-01-29T06:08:47.297Z,1.14
2023-01-29T06:09:48.963Z,1.17
2023-01-29T06:10:50.544Z,1.20
2023-01-29T06:11:52.135Z,1.24
2023-01-29T06:12:53.796Z,1.20
2023-01-29T06:13:55.483Z,1.20
2023-01-29T06:14:57.137Z,1.17
2023-01-29T06:15:58.808Z,1.13
2023-01-29T06:17:00.495Z,1.13
2023-01-29T06:18:02.202Z,1.11
2023-01-29T06:19:03.816Z,1.15
2023-01-29T06:20:06.062Z,1.13
2023-01-29T06:21:09.751Z,1.07
2023-01-29T06:22:11.360Z,1.09
2023-01-29T06:23:12.953Z,1.11
2023-01-29T06:24:14.743Z,1.14
2023-01-29T06:25:16.494Z,1.24
2023-01-29T06:26:18.173Z,1.24
2023-01-29T06:27:19.797Z,1.20
2023-01-29T06:28:21.407Z,1.11
2023-01-29T06:29:23.060Z,1.14
2023-01-29T06:30:24.725Z,1.09
2023-01-29T06:31:38.208Z,1.11
2023-01-29T06:32:40.801Z,1.09
2023-01-29T06:33:42.453Z,1.09
2023-01-29T06:34:44.089Z,0.98
2023-01-29T06:35:45.687Z,0.95
2023-01-29T06:36:47.388Z,1.01
2023-01-29T06:37:49.071Z,1.00
2023-01-29T06:38:50.675Z,0.93
2023-01-29T06:39:52.316Z,0.91
2023-01-29T06:40:53.971Z,0.93
2023-01-29T06:41:55.637Z,0.97
2023-01-29T06:42:57.297Z,0.94
2023-01-29T06:43:58.932Z,0.91
2023-01-29T06:45:00.532Z,0.97
2023-01-29T06:46:02.261Z,0.95
2023-01-29T06:47:03.942Z,0.91
2023-01-29T06:48:05.854Z,0.90
2023-01-29T06:49:07.436Z,0.93
2023-01-29T06:50:09.685Z,0.91
2023-01-29T06:51:11.331Z,0.85
2023-01-29T06:52:12.973Z,0.85
2023-01-29T06:53:14.578Z,0.93
2023-01-29T06:54:16.167Z,0.91
2023-01-29T06:55:17.820Z,0.90
2023-01-29T06:56:19.464Z,0.98
2023-01-29T06:57:21.071Z,1.00
2023-01-29T06:58:22.662Z,0.93
2023-01-29T06:59:24.275Z,0.98
2023-01-29T07:00:25.926Z,0.97
2023-01-29T07:01:36.142Z,0.98
2023-01-29T07:02:38.147Z,1.03
2023-01-29T07:03:41.583Z,1.09
2023-01-29T07:04:43.375Z,1.07
2023-01-29T07:05:53.018Z,1.08
2023-01-29T07:06:54.820Z,1.04
2023-01-29T07:07:56.501Z,0.94
2023-01-29T07:08:58.138Z,0.88
2023-01-29T07:09:59.855Z,0.93
2023-01-29T07:11:01.658Z,0.84
2023-01-29T07:12:04.643Z,0.76
2023-01-29T07:13:06.298Z,0.79
2023-01-29T07:14:08.044Z,0.85
2023-01-29T07:15:10.029Z,0.77
2023-01-29T07:16:11.631Z,0.76
2023-01-29T07:17:13.288Z,0.81
2023-01-29T07:18:14.916Z,0.80
2023-01-29T07:19:16.810Z,0.88
2023-01-29T07:20:18.937Z,0.88
2023-01-29T07:21:20.725Z,0.95
2023-01-29T07:22:22.348Z,1.01
2023-01-29T07:23:23.985Z,0.97
2023-01-29T07:24:25.680Z,0.95
2023-01-29T07:25:27.404Z,0.98
2023-01-29T07:26:29.174Z,1.03
2023-01-29T07:27:30.780Z,1.00
2023-01-29T07:28:32.398Z,1.01
2023-01-29T07:29:34.041Z,1.11
2023-01-29T07:30:35.911Z,1.08
2023-01-29T07:31:37.633Z,0.98
2023-01-29T07:32:39.418Z,0.94
2023-01-29T07:33:43.292Z,1.00
2023-01-29T07:34:44.902Z,1.04
2023-01-29T07:35:46.507Z,1.09
2023-01-29T07:36:48.127Z,1.04
2023-01-29T07:37:50.446Z,1.08
2023-01-29T07:38:52.095Z,1.15
2023-01-29T07:39:53.747Z,1.24
2023-01-29T07:40:55.493Z,1.30
2023-01-29T07:41:57.225Z,1.28
2023-01-29T07:43:00.005Z,1.28
2023-01-29T07:44:01.620Z,1.32
2023-01-29T07:45:03.259Z,1.41
2023-01-29T07:46:05.123Z,1.39
2023-01-29T07:47:06.830Z,1.45
2023-01-29T07:48:11.058Z,1.45
2023-01-29T07:49:12.653Z,1.39
2023-01-29T07:50:14.412Z,1.44
2023-01-29T07:51:18.226Z,1.51
2023-01-29T07:52:22.193Z,1.51
2023-01-29T07:53:24.032Z,1.59
2023-01-29T07:54:25.685Z,1.46
2023-01-29T07:55:27.332Z,1.39
2023-01-29T07:56:29.004Z,1.31
2023-01-29T07:57:30.714Z,1.34
2023-01-29T07:58:32.974Z,1.32
2023-01-29T07:59:35.517Z,1.34
2023-01-29T08:00:37.164Z,1.22
2023-01-29T08:01:38.780Z,1.24
2023-01-29T08:02:41.357Z,1.15
2023-01-29T08:03:44.255Z,1.14
2023-01-29T08:04:45.871Z,1.20
2023-01-29T08:05:48.002Z,1.31
2023-01-29T08:06:50.360Z,1.36
2023-01-29T08:08:06.223Z,1.38
2023-01-29T08:09:08.912Z,1.41
2023-01-29T08:10:11.187Z,1.41
2023-01-29T08:11:12.904Z,1.42
2023-01-29T08:12:14.575Z,1.48
2023-01-29T08:13:16.188Z,1.42
2023-01-29T08:14:17.864Z,1.41
2023-01-29T08:15:19.452Z,1.34
2023-01-29T08:16:21.085Z,1.27
2023-01-29T08:17:22.755Z,1.35
2023-01-29T08:18:24.380Z,1.28
2023-01-29T08:19:25.982Z,1.28
2023-01-29T08:20:27.640Z,1.17
2023-01-29T08:21:29.278Z,1.13
2023-01-29T08:22:31.013Z,1.17
2023-01-29T08:23:32.659Z,1.07
2023-01-29T08:24:47.679Z,1.15
2023-01-29T08:25:55.934Z,1.04
2023-01-29T08:26:57.598Z,1.05
2023-01-29T08:27:59.524Z,1.08
2023-01-29T08:29:01.138Z,1.15
2023-01-29T08:30:02.888Z,1.14
2023-01-29T08:31:05.207Z,1.14
2023-01-29T08:32:10.270Z,0.94
2023-01-29T08:33:11.947Z,1.05
2023-01-29T08:34:13.565Z,1.04
2023-01-29T08:35:15.171Z,1.03
2023-01-29T08:36:16.944Z,1.01
2023-01-29T08:37:18.575Z,1.01
2023-01-29T08:38:20.235Z,1.00
2023-01-29T08:39:21.884Z,0.83
2023-01-29T08:40:23.619Z,0.93
2023-01-29T08:41:25.331Z,1.03
2023-01-29T08:42:26.926Z,1.07
2023-01-29T08:43:28.572Z,1.04
2023-01-29T08:44:30.225Z,1.03
2023-01-29T08:45:35.941Z,1.05
2023-01-29T08:46:37.555Z,1.13
2023-01-29T08:47:39.196Z,1.09
2023-01-29T08:48:40.919Z,1.11
2023-01-29T08:49:42.512Z,1.03
2023-01-29T08:50:44.155Z,1.07
2023-01-29T08:51:45.772Z,1.04
2023-01-29T08:52:47.373Z,1.08
2023-01-29T08:53:50.607Z,0.98
2023-01-29T08:54:52.288Z,0.93
2023-01-29T08:55:54.054Z,0.97
2023-01-29T08:56:55.691Z,0.91
2023-01-29T08:57:57.453Z,0.91
2023-01-29T08:58:59.250Z,0.93
2023-01-29T09:00:00.975Z,0.91
2023-01-29T09:01:09.566Z,0.91
2023-01-29T09:02:11.436Z,0.93
2023-01-29T09:03:13.090Z,0.90
2023-01-29T09:04:14.714Z,0.76
2023-01-29T09:05:16.739Z,0.79
2023-01-29T09:06:18.820Z,0.85
2023-01-29T09:07:21.883Z,0.87
2023-01-29T09:08:23.476Z,0.91
2023-01-29T09:09:25.105Z,0.91
2023-01-29T09:10:26.958Z,0.85
2023-01-29T09:11:28.572Z,0.91
2023-01-29T09:12:30.189Z,0.95
2023-01-29T09:13:31.867Z,0.95
2023-01-29T09:14:33.474Z,1.01
2023-01-29T09:15:35.216Z,1.00
2023-01-29T09:16:36.976Z,0.94
2023-01-29T09:17:38.575Z,1.03
2023-01-29T09:18:40.171Z,1.13
2023-01-29T09:19:41.834Z,0.98
2023-01-29T09:20:43.586Z,1.08
2023-01-29T09:21:45.242Z,1.13
2023-01-29T09:22:47.124Z,1.15
2023-01-29T09:23:48.751Z,1.08
2023-01-29T09:24:50.362Z,1.05
2023-01-29T09:25:52.025Z,1.05
2023-01-29T09:26:53.667Z,1.01
2023-01-29T09:27:55.334Z,1.04
2023-01-29T09:28:56.948Z,1.03
2023-01-29T09:29:58.663Z,0.97
2023-01-29T09:31:03.586Z,1.05
2023-01-29T09:32:05.594Z,0.98
2023-01-29T09:33:08.755Z,0.95
2023-01-29T09:34:10.414Z,0.94
2023-01-29T09:35:12.068Z,1.03
2023-01-29T09:36:14.632Z,1.04
2023-01-29T09:37:17.736Z,1.07
2023-01-29T09:38:19.473Z,1.07
2023-01-29T09:39:21.107Z,1.01
2023-01-29T09:40:38.561Z,1.04
2023-01-29T09:42:08.566Z,0.98
2023-01-29T09:43:18.440Z,1.05
2023-01-29T09:44:53.874Z,1.11
2023-01-29T09:45:58.271Z,1.03
2023-01-29T09:47:00.603Z,1.09
2023-01-29T09:48:03.286Z,1.13
2023-01-29T09:49:25.961Z,1.15
2023-01-29T09:50:37.562Z,1.07
2023-01-29T09:51:41.487Z,1.07
2023-01-29T09:52:46.805Z,0.95
2023-01-29T09:54:17.196Z,0.95
2023-01-29T09:55:42.414Z,0.98
2023-01-29T09:56:44.053Z,0.98
2023-01-29T09:57:58.477Z,1.05
2023-01-29T09:59:01.710Z,1.15
2023-01-29T10:00:03.838Z,1.24
2023-01-29T10:01:28.025Z,1.25
2023-01-29T10:02:46.458Z,1.17
2023-01-29T10:04:38.455Z,1.11
2023-01-29T10:05:45.807Z,1.18
2023-01-29T10:06:58.839Z,1.17
2023-01-29T10:08:13.444Z,1.15
2023-01-29T10:10:06.318Z,1.17
2023-01-29T10:11:33.145Z,1.15
2023-01-29T10:12:43.832Z,1.07
2023-01-29T10:14:02.743Z,1.13
2023-01-29T10:15:20.027Z,1.07
2023-01-29T10:16:54.558Z,1.15
2023-01-29T10:18:05.064Z,1.14
2023-01-29T10:19:27.865Z,1.14
2023-01-29T10:20:54.376Z,1.14
2023-01-29T10:22:15.355Z,1.22
2023-01-29T10:23:28.879Z,1.30
2023-01-29T10:24:53.839Z,1.35
2023-01-29T10:25:55.717Z,1.31
2023-01-29T10:26:57.380Z,1.36
2023-01-29T10:27:59.163Z,1.44
2023-01-29T10:29:00.856Z,1.38
2023-01-29T10:30:04.232Z,1.39
2023-01-29T10:31:28.068Z,1.39
2023-01-29T10:32:29.821Z,1.27
2023-01-29T10:33:49.284Z,1.21
2023-01-29T10:35:03.841Z,1.07
2023-01-29T10:36:08.280Z,1.14
2023-01-29T10:37:22.793Z,1.11
2023-01-29T10:38:45.939Z,1.15
2023-01-29T10:39:47.597Z,1.14
2023-01-29T10:41:12.084Z,1.15
2023-01-29T10:42:24.503Z,1.25
2023-01-29T10:43:44.229Z,1.27
2023-01-29T10:44:58.463Z,1.39
2023-01-29T10:46:09.794Z,1.38
2023-01-29T10:47:41.173Z,1.45
2023-01-29T10:48:51.854Z,1.48
2023-01-29T10:50:11.543Z,1.46
2023-01-29T10:52:08.336Z,1.49
2023-01-29T10:53:32.254Z,1.66
2023-01-29T10:54:54.709Z,1.54
2023-01-29T10:56:05.815Z,1.65
2023-01-29T10:57:12.455Z,1.56
2023-01-29T10:58:26.116Z,1.65
2023-01-29T10:59:49.741Z,1.65
2023-01-29T11:00:51.663Z,1.67
2023-01-29T11:01:59.338Z,1.70
2023-01-29T11:03:01.124Z,1.79
2023-01-29T11:04:04.274Z,1.76
2023-01-29T11:05:29.570Z,1.86
2023-01-29T11:06:35.380Z,1.66
2023-01-29T11:07:36.980Z,1.73
2023-01-29T11:08:41.149Z,1.76
2023-01-29T11:09:46.621Z,1.63
2023-01-29T11:10:59.663Z,1.60
2023-01-29T11:12:11.581Z,1.60
2023-01-29T11:13:14.567Z,1.56
2023-01-29T11:14:35.214Z,1.56
2023-01-29T11:15:36.880Z,1.66
2023-01-29T11:16:45.873Z,1.66
2023-01-29T11:18:15.991Z,1.69
2023-01-29T11:19:17.716Z,1.69
2023-01-29T11:20:27.176Z,1.73
2023-01-29T11:21:29.409Z,1.59
2023-01-29T11:22:31.076Z,1.66
2023-01-29T11:23:33.617Z,1.66
2023-01-29T11:24:35.219Z,1.52
2023-01-29T11:25:36.993Z,1.55
2023-01-29T11:26:40.047Z,1.60
2023-01-29T11:27:49.706Z,1.77
2023-01-29T11:28:51.789Z,1.70
2023-01-29T11:29:53.794Z,1.80
2023-01-29T11:30:55.727Z,1.73
2023-01-29T11:31:58.165Z,1.72
2023-01-29T11:33:09.763Z,1.70
2023-01-29T11:34:21.020Z,1.77
2023-01-29T11:35:24.862Z,1.80
2023-01-29T11:36:38.301Z,1.83
2023-01-29T11:37:41.122Z,1.67
2023-01-29T11:38:42.769Z,1.72
2023-01-29T11:39:47.198Z,1.77
2023-01-29T11:40:48.887Z,1.69
2023-01-29T11:41:55.479Z,1.73
2023-01-29T11:42:57.375Z,1.73
2023-01-29T11:43:59.921Z,1.46
2023-01-29T11:45:01.593Z,1.52
2023-01-29T11:46:07.361Z,1.55
2023-01-29T11:47:14.810Z,1.52
2023-01-29T11:48:21.105Z,1.24
2023-01-29T11:49:34.186Z,1.09
2023-01-29T11:50:36.091Z,1.11
2023-01-29T11:51:37.879Z,1.20
2023-01-29T11:52:41.042Z,1.27
2023-01-29T11:53:44.792Z,1.09
2023-01-29T11:54:50.879Z,1.31
2023-01-29T11:55:52.589Z,1.44
2023-01-29T11:56:54.612Z,1.49
2023-01-29T11:58:11.604Z,1.44
2023-01-29T11:59:37.432Z,1.34
2023-01-29T12:00:39.632Z,1.13
2023-01-29T12:01:41.305Z,1.25
2023-01-29T12:02:44.222Z,1.20
2023-01-29T12:03:52.181Z,1.28
2023-01-29T12:05:07.103Z,1.22
2023-01-29T12:06:16.131Z,1.31
2023-01-29T12:07:18.378Z,1.46
2023-01-29T12:08:22.953Z,1.38
2023-01-29T12:09:29.696Z,1.41
2023-01-29T12:10:39.375Z,1.41
2023-01-29T12:11:41.288Z,1.38
2023-01-29T12:12:43.420Z,1.38
2023-01-29T12:13:45.276Z,1.42
2023-01-29T12:14:47.109Z,1.52
2023-01-29T12:15:49.050Z,1.30
2023-01-29T12:17:15.263Z,1.27
2023-01-29T12:18:20.804Z,1.27
2023-01-29T12:19:43.800Z,1.27
2023-01-29T12:20:48.564Z,1.18
2023-01-29T12:21:58.272Z,1.18
2023-01-29T12:23:11.195Z,1.24
2023-01-29T12:24:41.894Z,1.36
2023-01-29T12:26:09.784Z,1.42
2023-01-29T12:27:22.502Z,1.35
2023-01-29T12:28:32.029Z,1.35
2023-01-29T12:29:48.834Z,1.38
2023-01-29T12:30:59.362Z,1.35
2023-01-29T12:32:07.122Z,1.25
2023-01-29T12:33:27.246Z,1.34
2023-01-29T12:34:39.575Z,1.07
2023-01-29T12:35:54.743Z,1.13
2023-01-29T12:37:19.921Z,1.01
2023-01-29T12:38:23.172Z,1.07
2023-01-29T12:39:25.154Z,1.00
2023-01-29T12:40:30.093Z,0.93
2023-01-29T12:41:40.960Z,0.84
2023-01-29T12:42:45.155Z,0.88
2023-01-29T12:43:48.740Z,0.90
2023-01-29T12:44:57.895Z,0.94
2023-01-29T12:45:59.649Z,0.98
2023-01-29T12:47:02.337Z,1.09
2023-01-29T12:48:09.116Z,1.25
2023-01-29T12:49:14.605Z,1.34
2023-01-29T12:50:22.281Z,1.45
2023-01-29T12:51:45.001Z,1.51
2023-01-29T12:52:50.142Z,1.56
2023-01-29T12:53:57.659Z,1.56
2023-01-29T12:55:29.675Z,1.65
2023-01-29T12:57:04.537Z,1.75
2023-01-29T12:58:20.149Z,1.86
2023-01-29T12:59:42.959Z,1.77
2023-01-29T13:00:46.331Z,1.77
2023-01-29T13:01:56.555Z,1.69
2023-01-29T13:03:23.411Z,1.79
2023-01-29T13:04:38.349Z,1.76
2023-01-29T13:06:06.133Z,1.69
2023-01-29T13:07:18.974Z,1.82
2023-01-29T13:08:39.788Z,1.87
2023-01-29T13:09:43.787Z,1.82
2023-01-29T13:10:48.480Z,1.82
2023-01-29T13:12:07.872Z,1.83
2023-01-29T13:13:16.783Z,1.76
2023-01-29T13:14:21.055Z,1.72
2023-01-29T13:15:26.639Z,1.62
2023-01-29T13:16:30.929Z,1.59
2023-01-29T13:17:41.460Z,1.63
2023-01-29T13:18:55.184Z,1.69
2023-01-29T13:19:59.773Z,1.69
2023-01-29T13:21:01.693Z,1.79
2023-01-29T13:22:05.583Z,1.70
2023-01-29T13:23:18.491Z,1.83
2023-01-29T13:24:21.891Z,1.77
2023-01-29T13:25:23.718Z,1.70
2023-01-29T13:26:26.752Z,1.80
2023-01-29T13:27:37.224Z,1.72
2023-01-29T13:28:39.416Z,1.79
2023-01-29T13:29:41.462Z,1.80
2023-01-29T13:30:43.770Z,1.70
2023-01-29T13:31:49.599Z,1.63
2023-01-29T13:32:52.457Z,1.49
2023-01-29T13:33:58.182Z,1.62
2023-01-29T13:35:12.888Z,1.67
2023-01-29T13:36:16.640Z,1.65
2023-01-29T13:37:30.005Z,1.65
2023-01-29T13:38:33.599Z,1.46
2023-01-29T13:39:44.700Z,1.51
2023-01-29T13:40:49.410Z,1.42
2023-01-29T13:41:51.624Z,1.36
2023-01-29T13:42:54.446Z,1.22
2023-01-29T13:43:56.118Z,1.15
2023-01-29T13:44:58.244Z,1.18
2023-01-29T13:46:00.133Z,1.21
2023-01-29T13:47:12.048Z,1.22
2023-01-29T13:48:28.928Z,1.22
2023-01-29T13:49:35.977Z,1.22
2023-01-29T13:50:39.251Z,1.17
2023-01-29T13:51:40.891Z,1.08
2023-01-29T13:52:46.240Z,1.05
2023-01-29T13:53:57.782Z,1.03
2023-01-29T13:55:20.106Z,1.05
2023-01-29T13:57:00.670Z,1.13
2023-01-29T13:58:03.542Z,1.05
2023-01-29T13:59:05.973Z,1.11
2023-01-29T14:00:22.661Z,1.14
2023-01-29T14:02:04.136Z,1.17
2023-01-29T14:03:11.363Z,1.22
2023-01-29T14:04:19.028Z,1.28
2023-01-29T14:05:30.236Z,1.09
2023-01-29T14:06:40.559Z,1.22
2023-01-29T14:07:45.027Z,1.20
2023-01-29T14:08:47.557Z,1.09
2023-01-29T14:09:49.263Z,1.13
2023-01-29T14:11:13.415Z,1.20
2023-01-29T14:12:25.757Z,1.21
2023-01-29T14:13:28.807Z,1.25
2023-01-29T14:14:49.020Z,1.25
2023-01-29T14:15:56.983Z,1.28
2023-01-29T14:17:01.955Z,1.24
2023-01-29T14:18:18.677Z,1.24
2023-01-29T14:19:20.787Z,1.13
2023-01-29T14:20:27.687Z,0.97
2023-01-29T14:21:35.222Z,0.95
2023-01-29T14:22:38.146Z,0.73
2023-01-29T14:23:57.239Z,0.77
2023-01-29T14:25:02.110Z,0.80
2023-01-29T14:26:26.322Z,0.79
2023-01-29T14:27:28.286Z,0.81
2023-01-29T14:28:31.032Z,0.77
2023-01-29T14:29:38.277Z,0.80
2023-01-29T14:30:41.452Z,0.84
2023-01-29T14:32:00.909Z,0.77
2023-01-29T14:33:03.674Z,0.74
2023-01-29T14:34:27.285Z,0.83
2023-01-29T14:35:31.200Z,0.85
2023-01-29T14:36:42.427Z,0.90
2023-01-29T14:37:49.754Z,0.95
2023-01-29T14:38:52.751Z,0.90
2023-01-29T14:39:58.140Z,0.84
2023-01-29T14:41:06.207Z,0.91
2023-01-29T14:42:18.592Z,0.93
2023-01-29T14:43:21.315Z,0.97
2023-01-29T14:44:45.198Z,1.00
2023-01-29T14:45:50.361Z,1.01
2023-01-29T14:46:52.315Z,1.13
2023-01-29T14:48:01.802Z,1.13
2023-01-29T14:49:03.783Z,1.08
2023-01-29T14:50:33.308Z,1.01
2023-01-29T14:51:37.193Z,0.97
2023-01-29T14:52:40.989Z,0.95
2023-01-29T14:53:53.596Z,0.84
2023-01-29T14:54:58.602Z,0.81
2023-01-29T14:56:03.266Z,0.84
2023-01-29T14:57:06.203Z,0.74
2023-01-29T14:58:18.659Z,0.71